createdAt,value
2018-07-04T00:00:21.846Z,15.32
2018-07-04T00:02:15.124Z,15.29
2018-07-04T00:03:15.044Z,15.29
2018-07-04T00:05:07.893Z,15.23
2018-07-04T00:06:07.757Z,15.30
2018-07-04T00:08:00.614Z,15.12
2018-07-04T00:09:00.504Z,15.05
2018-07-04T00:10:53.358Z,15.01
2018-07-04T00:11:53.250Z,15.01
2018-07-04T00:13:46.120Z,14.97
2018-07-04T00:14:46.045Z,14.86
2018-07-04T00:16:38.849Z,14.92
2018-07-04T00:17:38.774Z,14.83
2018-07-04T00:19:31.626Z,14.85
2018-07-04T00:20:31.507Z,14.85
2018-07-04T00:22:24.240Z,14.95
2018-07-04T00:23:24.150Z,14.89
2018-07-04T00:25:17.006Z,14.66
2018-07-04T00:26:16.897Z,14.70
2018-07-04T00:28:09.680Z,14.71
2018-07-04T00:29:09.557Z,14.67
2018-07-04T00:31:02.391Z,14.64
2018-07-04T00:32:02.199Z,14.64
2018-07-04T00:33:54.975Z,14.63
2018-07-04T00:34:54.856Z,14.48
2018-07-04T00:36:48.090Z,14.46
2018-07-04T00:37:48.011Z,14.52
2018-07-04T00:39:40.868Z,14.53
2018-07-04T00:40:40.740Z,14.41
2018-07-04T00:42:34.101Z,14.37
2018-07-04T00:43:33.399Z,14.45
2018-07-04T00:45:26.254Z,14.38
2018-07-04T00:46:26.137Z,14.38
2018-07-04T00:48:19.016Z,14.38
2018-07-04T00:49:18.892Z,14.36
2018-07-04T00:51:11.651Z,14.41
2018-07-04T00:52:11.555Z,14.36
2018-07-04T00:54:04.433Z,14.22
2018-07-04T00:55:04.309Z,14.26
2018-07-04T00:56:57.159Z,14.21
2018-07-04T00:57:57.045Z,14.27
2018-07-04T00:59:49.888Z,14.19
2018-07-04T01:00:49.795Z,14.21
2018-07-04T01:02:42.732Z,14.26
2018-07-04T01:03:42.644Z,14.15
2018-07-04T01:05:35.390Z,14.16
2018-07-04T01:06:35.286Z,14.21
2018-07-04T01:08:28.138Z,14.21
2018-07-04T01:09:28.037Z,14.11
2018-07-04T01:11:20.876Z,14.12
2018-07-04T01:12:20.824Z,14.11
2018-07-04T01:14:14.638Z,14.18
2018-07-04T01:15:13.499Z,14.16
2018-07-04T01:17:06.845Z,14.11
2018-07-04T01:18:06.202Z,14.04
2018-07-04T01:19:59.026Z,14.01
2018-07-04T01:20:58.946Z,13.91
2018-07-04T01:22:51.690Z,13.96
2018-07-04T01:23:51.592Z,14.01
2018-07-04T01:25:44.427Z,13.98
2018-07-04T01:26:44.336Z,13.88
2018-07-04T01:28:37.207Z,13.93
2018-07-04T01:29:37.098Z,13.96
2018-07-04T01:31:29.834Z,13.94
2018-07-04T01:32:29.736Z,13.80
2018-07-04T01:34:22.483Z,13.83
2018-07-04T01:35:22.405Z,13.80
2018-07-04T01:37:15.282Z,13.80
2018-07-04T01:38:15.171Z,13.83
2018-07-04T01:40:09.991Z,13.88
2018-07-04T01:41:09.325Z,13.79
2018-07-04T01:43:02.047Z,13.83
2018-07-04T01:44:01.956Z,13.79
2018-07-04T01:45:54.804Z,13.75
2018-07-04T01:46:54.702Z,13.79
2018-07-04T01:48:47.453Z,13.71
2018-07-04T01:49:47.353Z,13.54
2018-07-04T01:51:40.713Z,13.63
2018-07-04T01:52:40.106Z,13.65
2018-07-04T01:54:32.910Z,13.63
2018-07-04T01:55:32.786Z,13.67
2018-07-04T01:57:25.618Z,13.65
2018-07-04T01:58:25.499Z,13.65
2018-07-04T02:00:18.253Z,13.54
2018-07-04T02:01:18.166Z,13.42
2018-07-04T02:03:11.902Z,13.40
2018-07-04T02:04:10.890Z,13.42
2018-07-04T02:06:04.265Z,13.42
2018-07-04T02:07:03.749Z,13.42
2018-07-04T02:08:56.514Z,13.38
2018-07-04T02:09:56.398Z,13.42
2018-07-04T02:11:49.174Z,13.42
2018-07-04T02:12:49.065Z,13.32
2018-07-04T02:14:41.884Z,13.26
2018-07-04T02:15:41.790Z,13.29
2018-07-04T02:17:34.562Z,13.20
2018-07-04T02:18:34.435Z,13.20
2018-07-04T02:20:27.296Z,13.11
2018-07-04T02:21:27.185Z,13.08
2018-07-04T02:23:19.946Z,13.17
2018-07-04T02:24:19.839Z,13.09
2018-07-04T02:26:12.596Z,13.06
2018-07-04T02:27:12.488Z,13.09
2018-07-04T02:29:05.328Z,12.99
2018-07-04T02:30:05.223Z,12.98
2018-07-04T02:31:58.081Z,12.96
2018-07-04T02:32:57.913Z,13.02
2018-07-04T02:34:50.659Z,12.99
2018-07-04T02:35:50.532Z,13.06
2018-07-04T02:37:43.268Z,12.95
2018-07-04T02:38:43.181Z,12.93
2018-07-04T02:40:36.044Z,12.86
2018-07-04T02:41:35.938Z,12.83
2018-07-04T02:43:28.785Z,12.91
2018-07-04T02:44:28.694Z,12.93
2018-07-04T02:46:21.590Z,12.95
2018-07-04T02:47:21.420Z,12.90
2018-07-04T02:49:14.162Z,12.87
2018-07-04T02:50:14.073Z,12.91
2018-07-04T02:52:06.960Z,12.86
2018-07-04T02:53:06.879Z,12.81
2018-07-04T02:54:59.662Z,12.87
2018-07-04T02:55:59.604Z,12.88
2018-07-04T02:57:52.335Z,12.86
2018-07-04T02:58:52.222Z,12.86
2018-07-04T03:00:44.958Z,12.81
2018-07-04T03:01:44.871Z,12.79
2018-07-04T03:03:37.633Z,12.84
2018-07-04T03:04:37.512Z,12.88
2018-07-04T03:06:30.354Z,12.71
2018-07-04T03:07:30.267Z,12.73
2018-07-04T03:09:23.123Z,12.81
2018-07-04T03:10:23.002Z,12.71
2018-07-04T03:12:16.369Z,12.72
2018-07-04T03:13:15.671Z,12.66
2018-07-04T03:15:08.517Z,12.69
2018-07-04T03:16:08.421Z,12.66
2018-07-04T03:18:01.244Z,12.68
2018-07-04T03:19:01.156Z,12.73
2018-07-04T03:20:53.933Z,12.79
2018-07-04T03:21:53.815Z,12.71
2018-07-04T03:23:46.552Z,12.73
2018-07-04T03:24:46.451Z,12.72
2018-07-04T03:26:39.225Z,12.77
2018-07-04T03:27:39.095Z,12.83
2018-07-04T03:29:31.944Z,12.73
2018-07-04T03:30:31.848Z,12.69
2018-07-04T03:32:24.707Z,12.71
2018-07-04T03:33:24.602Z,12.77
2018-07-04T03:35:17.338Z,12.77
2018-07-04T03:36:17.267Z,12.79
2018-07-04T03:38:10.126Z,12.76
2018-07-04T03:39:10.008Z,12.72
2018-07-04T03:41:02.847Z,12.69
2018-07-04T03:42:02.754Z,12.77
2018-07-04T03:43:55.611Z,12.77
2018-07-04T03:44:55.497Z,12.77
2018-07-04T03:46:48.229Z,12.80
2018-07-04T03:47:48.140Z,12.91
2018-07-04T03:49:41.041Z,12.87
2018-07-04T03:50:40.799Z,12.87
2018-07-04T03:52:33.577Z,13.02
2018-07-04T03:53:33.429Z,13.06
2018-07-04T03:55:26.813Z,12.88
2018-07-04T03:56:26.199Z,12.91
2018-07-04T03:58:18.949Z,12.84
2018-07-04T03:59:18.847Z,12.88
2018-07-04T04:01:11.601Z,12.91
2018-07-04T04:02:11.490Z,12.93
2018-07-04T04:04:05.244Z,12.88
2018-07-04T04:05:05.157Z,12.86
2018-07-04T04:06:58.079Z,12.98
2018-07-04T04:07:57.902Z,12.98
2018-07-04T04:09:50.754Z,12.99
2018-07-04T04:10:50.642Z,13.01
2018-07-04T04:12:43.539Z,13.04
2018-07-04T04:13:43.393Z,13.06
2018-07-04T04:15:36.158Z,13.05
2018-07-04T04:16:36.057Z,13.09
2018-07-04T04:18:28.937Z,13.20
2018-07-04T04:19:28.687Z,13.29
2018-07-04T04:21:21.543Z,13.36
2018-07-04T04:22:21.357Z,13.27
2018-07-04T04:24:14.210Z,13.42
2018-07-04T04:25:14.080Z,13.39
2018-07-04T04:27:06.997Z,13.58
2018-07-04T04:28:06.848Z,13.54
2018-07-04T04:29:59.609Z,13.61
2018-07-04T04:30:59.478Z,13.60
2018-07-04T04:32:52.237Z,13.55
2018-07-04T04:33:52.180Z,13.58
2018-07-04T04:35:44.993Z,13.57
2018-07-04T04:36:44.879Z,13.49
2018-07-04T04:38:37.727Z,13.58
2018-07-04T04:39:37.638Z,13.63
2018-07-04T04:41:30.390Z,13.65
2018-07-04T04:42:30.312Z,13.60
2018-07-04T04:44:23.128Z,13.63
2018-07-04T04:45:23.022Z,13.63
2018-07-04T04:47:15.793Z,13.61
2018-07-04T04:48:15.679Z,13.61
2018-07-04T04:50:08.439Z,13.73
2018-07-04T04:51:08.358Z,13.80
2018-07-04T04:53:01.133Z,13.93
2018-07-04T04:54:00.967Z,14.04
2018-07-04T04:55:53.810Z,14.11
2018-07-04T04:56:53.747Z,14.11
2018-07-04T04:58:46.492Z,14.12
2018-07-04T04:59:46.359Z,14.23
2018-07-04T05:01:39.123Z,14.15
2018-07-04T05:02:39.015Z,14.22
2018-07-04T05:04:31.832Z,14.40
2018-07-04T05:05:31.652Z,14.48
2018-07-04T05:07:24.552Z,14.55
2018-07-04T05:08:24.409Z,14.58
2018-07-04T05:10:17.287Z,14.73
2018-07-04T05:11:17.175Z,14.82
2018-07-04T05:13:10.042Z,14.97
2018-07-04T05:14:09.912Z,15.05
2018-07-04T05:16:02.772Z,15.14
2018-07-04T05:17:02.662Z,15.23
2018-07-04T05:18:55.403Z,15.26
2018-07-04T05:19:55.318Z,15.27
2018-07-04T05:21:48.094Z,15.41
2018-07-04T05:22:47.976Z,15.52
2018-07-04T05:24:40.696Z,15.56
2018-07-04T05:25:40.619Z,15.60
2018-07-04T05:27:33.471Z,15.73
2018-07-04T05:28:33.360Z,15.83
2018-07-04T05:30:26.176Z,15.85
2018-07-04T05:31:26.088Z,15.85
2018-07-04T05:33:18.775Z,16.05
2018-07-04T05:34:18.676Z,16.16
2018-07-04T05:36:11.497Z,16.18
2018-07-04T05:37:11.316Z,16.16
2018-07-04T05:39:04.060Z,16.37
2018-07-04T05:40:03.973Z,16.39
2018-07-04T05:41:56.696Z,16.49
2018-07-04T05:42:56.584Z,16.58
2018-07-04T05:44:49.459Z,16.65
2018-07-04T05:45:49.334Z,16.76
2018-07-04T05:47:42.251Z,16.70
2018-07-04T05:48:41.983Z,16.80
2018-07-04T05:50:34.790Z,16.98
2018-07-04T05:51:34.627Z,16.99
2018-07-04T05:53:27.386Z,17.10
2018-07-04T05:54:27.321Z,17.04
2018-07-04T05:56:20.372Z,17.13
2018-07-04T05:57:20.028Z,17.28
2018-07-04T05:59:12.868Z,17.41
2018-07-04T06:00:12.776Z,17.45
2018-07-04T06:02:05.555Z,17.52
2018-07-04T06:03:05.427Z,17.54
2018-07-04T06:04:58.165Z,17.63
2018-07-04T06:05:58.090Z,17.71
2018-07-04T06:07:50.845Z,17.87
2018-07-04T06:08:50.718Z,17.94
2018-07-04T06:10:43.560Z,18.02
2018-07-04T06:11:43.474Z,18.03
2018-07-04T06:13:36.325Z,18.09
2018-07-04T06:14:36.213Z,18.15
2018-07-04T06:16:28.957Z,18.28
2018-07-04T06:17:28.861Z,18.30
2018-07-04T06:19:21.729Z,18.42
2018-07-04T06:20:21.617Z,18.51
2018-07-04T06:22:14.375Z,18.61
2018-07-04T06:23:14.280Z,18.60
2018-07-04T06:25:07.137Z,18.70
2018-07-04T06:26:07.008Z,18.71
2018-07-04T06:27:59.769Z,18.85
2018-07-04T06:28:59.659Z,18.79
2018-07-04T06:30:52.526Z,18.88
2018-07-04T06:31:52.419Z,18.97
2018-07-04T06:33:45.252Z,19.08
2018-07-04T06:34:45.155Z,19.16
2018-07-04T06:36:37.927Z,19.30
2018-07-04T06:37:37.804Z,19.32
2018-07-04T06:39:30.653Z,19.42
2018-07-04T06:40:30.567Z,19.49
2018-07-04T06:42:23.350Z,19.59
2018-07-04T06:43:23.219Z,19.57
2018-07-04T06:45:16.548Z,19.67
2018-07-04T06:46:16.462Z,19.78
2018-07-04T06:48:09.334Z,19.81
2018-07-04T06:49:09.227Z,19.89
2018-07-04T06:51:02.077Z,20.05
2018-07-04T06:52:02.025Z,20.14
2018-07-04T06:53:54.813Z,20.30
2018-07-04T06:54:54.811Z,20.30
2018-07-04T06:56:48.072Z,20.55
2018-07-04T06:57:47.975Z,20.58
2018-07-04T06:59:41.268Z,20.73
2018-07-04T07:00:41.144Z,20.82
2018-07-04T07:02:33.978Z,21.03
2018-07-04T07:03:33.890Z,21.11
2018-07-04T07:05:26.740Z,21.38
2018-07-04T07:06:26.636Z,21.35
2018-07-04T07:08:19.546Z,21.32
2018-07-04T07:09:19.395Z,21.35
2018-07-04T07:11:12.265Z,21.47
2018-07-04T07:12:12.136Z,21.45
2018-07-04T07:14:04.968Z,21.63
2018-07-04T07:15:04.880Z,21.65
2018-07-04T07:16:57.742Z,21.78
2018-07-04T07:17:57.633Z,21.80
2018-07-04T07:19:50.473Z,21.77
2018-07-04T07:20:50.393Z,21.81
2018-07-04T07:22:43.274Z,21.84
2018-07-04T07:23:43.125Z,21.82
2018-07-04T07:25:36.000Z,21.93
2018-07-04T07:26:35.874Z,21.91
2018-07-04T07:28:28.721Z,21.96
2018-07-04T07:29:28.623Z,22.01
2018-07-04T07:31:21.489Z,22.13
2018-07-04T07:32:21.383Z,22.21
2018-07-04T07:34:14.363Z,22.18
2018-07-04T07:35:14.133Z,22.21
2018-07-04T07:37:07.006Z,22.27
2018-07-04T07:38:06.904Z,22.28
2018-07-04T07:39:59.771Z,22.40
2018-07-04T07:40:59.635Z,22.40
2018-07-04T07:42:52.474Z,22.46
2018-07-04T07:43:52.393Z,22.59
2018-07-04T07:45:45.218Z,22.74
2018-07-04T07:46:45.158Z,22.85
2018-07-04T07:48:38.030Z,23.04
2018-07-04T07:49:37.884Z,22.99
2018-07-04T07:51:30.721Z,23.22
2018-07-04T07:52:30.641Z,23.28
2018-07-04T07:54:23.532Z,23.45
2018-07-04T07:55:23.384Z,23.52
2018-07-04T07:57:16.234Z,23.63
2018-07-04T07:58:16.151Z,23.67
2018-07-04T08:00:08.979Z,23.73
2018-07-04T08:01:08.875Z,23.78
2018-07-04T08:03:01.745Z,23.84
2018-07-04T08:04:01.637Z,23.84
2018-07-04T08:05:54.503Z,23.94
2018-07-04T08:06:54.388Z,24.01
2018-07-04T08:08:47.250Z,24.23
2018-07-04T08:09:47.120Z,24.37
2018-07-04T08:11:39.963Z,24.38
2018-07-04T08:12:39.899Z,24.38
2018-07-04T08:14:32.730Z,24.48
2018-07-04T08:15:32.641Z,24.55
2018-07-04T08:17:25.464Z,24.63
2018-07-04T08:18:25.380Z,24.63
2018-07-04T08:20:18.235Z,24.86
2018-07-04T08:21:18.130Z,24.79
2018-07-04T08:23:10.966Z,25.01
2018-07-04T08:24:10.882Z,25.03
2018-07-04T08:26:03.730Z,25.08
2018-07-04T08:27:03.628Z,25.18
2018-07-04T08:28:56.498Z,25.38
2018-07-04T08:29:56.369Z,25.37
2018-07-04T08:31:49.235Z,25.33
2018-07-04T08:32:49.136Z,25.41
2018-07-04T08:34:41.977Z,25.55
2018-07-04T08:35:41.870Z,25.58
2018-07-04T08:37:34.718Z,25.64
2018-07-04T08:38:34.655Z,25.64
2018-07-04T08:40:27.484Z,25.56
2018-07-04T08:41:27.374Z,25.58
2018-07-04T08:43:20.216Z,25.67
2018-07-04T08:44:20.125Z,25.74
2018-07-04T08:46:12.974Z,25.71
2018-07-04T08:47:12.879Z,25.81
2018-07-04T08:49:05.713Z,25.95
2018-07-04T08:50:05.825Z,25.92
2018-07-04T08:51:58.477Z,26.04
2018-07-04T08:52:58.490Z,26.15
2018-07-04T08:54:51.225Z,26.10
2018-07-04T08:55:51.129Z,26.05
2018-07-04T08:57:43.972Z,26.10
2018-07-04T08:58:43.886Z,26.16
2018-07-04T09:00:36.703Z,26.26
2018-07-04T09:01:36.629Z,26.41
2018-07-04T09:03:29.513Z,26.63
2018-07-04T09:04:29.382Z,26.76
2018-07-04T09:06:22.224Z,26.86
2018-07-04T09:07:22.124Z,26.98
2018-07-04T09:09:14.973Z,27.13
2018-07-04T09:10:14.902Z,27.26
2018-07-04T09:12:07.721Z,27.34
2018-07-04T09:13:07.660Z,27.47
2018-07-04T09:15:00.482Z,27.72
2018-07-04T09:16:00.389Z,27.64
2018-07-04T09:17:53.227Z,27.54
2018-07-04T09:18:53.124Z,27.58
2018-07-04T09:20:45.967Z,27.69
2018-07-04T09:21:45.872Z,27.72
2018-07-04T09:23:38.730Z,27.79
2018-07-04T09:24:38.702Z,27.97
2018-07-04T09:26:31.484Z,27.83
2018-07-04T09:27:31.373Z,27.80
2018-07-04T09:29:24.237Z,27.72
2018-07-04T09:30:24.115Z,27.78
2018-07-04T09:32:16.984Z,28.15
2018-07-04T09:33:16.879Z,28.16
2018-07-04T09:35:09.730Z,28.34
2018-07-04T09:36:09.637Z,28.16
2018-07-04T09:38:02.488Z,28.17
2018-07-04T09:39:02.413Z,28.10
2018-07-04T09:40:55.232Z,28.28
2018-07-04T09:41:55.131Z,28.42
2018-07-04T09:43:48.050Z,28.44
2018-07-04T09:44:47.916Z,28.47
2018-07-04T09:46:40.745Z,28.69
2018-07-04T09:47:40.659Z,28.87
2018-07-04T09:49:33.465Z,28.83
2018-07-04T09:50:33.371Z,28.81
2018-07-04T09:52:26.218Z,28.69
2018-07-04T09:53:26.201Z,28.79
2018-07-04T09:55:18.980Z,28.77
2018-07-04T09:56:18.886Z,28.57
2018-07-04T09:58:11.719Z,28.54
2018-07-04T09:59:11.614Z,28.54
2018-07-04T10:01:04.458Z,28.83
2018-07-04T10:02:04.382Z,28.75
2018-07-04T10:03:57.250Z,28.84
2018-07-04T10:04:57.130Z,28.84
2018-07-04T10:06:49.998Z,28.59
2018-07-04T10:07:49.885Z,28.64
2018-07-04T10:09:42.798Z,28.77
2018-07-04T10:10:42.716Z,28.64
2018-07-04T10:12:35.615Z,28.53
2018-07-04T10:13:35.476Z,28.59
2018-07-04T10:15:28.333Z,28.72
2018-07-04T10:16:28.235Z,28.44
2018-07-04T10:18:21.079Z,28.42
2018-07-04T10:19:21.017Z,28.52
2018-07-04T10:21:14.331Z,28.66
2018-07-04T10:22:14.228Z,28.64
2018-07-04T10:24:07.069Z,28.66
2018-07-04T10:25:06.984Z,28.61
2018-07-04T10:26:59.831Z,28.89
2018-07-04T10:27:59.757Z,28.87
2018-07-04T10:29:53.097Z,29.00
2018-07-04T10:30:52.990Z,29.02
2018-07-04T10:32:45.863Z,29.06
2018-07-04T10:33:45.746Z,29.17
2018-07-04T10:35:38.696Z,29.12
2018-07-04T10:36:38.604Z,29.19
2018-07-04T10:38:31.443Z,29.13
2018-07-04T10:39:31.342Z,29.15
2018-07-04T10:41:24.205Z,28.90
2018-07-04T10:42:24.096Z,29.00
2018-07-04T10:44:16.994Z,28.84
2018-07-04T10:45:16.847Z,28.96
2018-07-04T10:47:09.691Z,28.80
2018-07-04T10:48:09.594Z,28.93
2018-07-04T10:50:02.444Z,28.84
2018-07-04T10:51:02.393Z,29.00
2018-07-04T10:52:55.192Z,29.15
2018-07-04T10:53:55.127Z,29.03
2018-07-04T10:55:47.922Z,29.02
2018-07-04T10:56:47.921Z,28.90
2018-07-04T10:58:40.737Z,28.86
2018-07-04T10:59:40.629Z,29.07
2018-07-04T11:01:34.352Z,29.37
2018-07-04T11:02:34.272Z,29.54
2018-07-04T11:04:27.148Z,29.49
2018-07-04T11:05:27.028Z,29.37
2018-07-04T11:07:19.892Z,29.55
2018-07-04T11:08:19.777Z,29.55
2018-07-04T11:10:12.605Z,29.61
2018-07-04T11:11:12.511Z,29.59
2018-07-04T11:13:05.370Z,29.58
2018-07-04T11:14:05.266Z,29.25
2018-07-04T11:15:58.110Z,29.15
2018-07-04T11:16:58.082Z,29.27
2018-07-04T11:18:50.901Z,29.25
2018-07-04T11:19:50.757Z,29.15
2018-07-04T11:21:43.734Z,28.98
2018-07-04T11:22:43.649Z,29.02
2018-07-04T11:24:36.457Z,29.06
2018-07-04T11:25:36.362Z,28.98
2018-07-04T11:27:29.208Z,28.74
2018-07-04T11:28:29.119Z,29.00
2018-07-04T11:30:21.981Z,29.34
2018-07-04T11:31:21.856Z,29.28
2018-07-04T11:33:14.697Z,29.59
2018-07-04T11:34:14.602Z,29.58
2018-07-04T11:36:07.479Z,29.95
2018-07-04T11:37:07.377Z,30.08
2018-07-04T11:39:00.191Z,30.26
2018-07-04T11:40:00.104Z,30.21
2018-07-04T11:41:52.986Z,30.21
2018-07-04T11:42:52.853Z,30.37
2018-07-04T11:44:45.709Z,30.56
2018-07-04T11:45:45.599Z,30.53
2018-07-04T11:47:38.460Z,30.20
2018-07-04T11:48:38.365Z,30.20
2018-07-04T11:50:31.209Z,30.05
2018-07-04T11:51:31.101Z,29.98
2018-07-04T11:53:23.945Z,30.05
2018-07-04T11:54:23.863Z,30.00
2018-07-04T11:56:16.748Z,29.68
2018-07-04T11:57:16.622Z,29.84
2018-07-04T11:59:09.467Z,30.08
2018-07-04T12:00:09.351Z,30.26
2018-07-04T12:02:02.185Z,30.48
2018-07-04T12:03:02.101Z,30.73
2018-07-04T12:04:54.980Z,30.80
2018-07-04T12:05:54.873Z,30.93
2018-07-04T12:07:47.680Z,30.97
2018-07-04T12:08:47.601Z,30.80
2018-07-04T12:10:40.456Z,30.74
2018-07-04T12:11:40.350Z,30.53
2018-07-04T12:13:33.207Z,30.48
2018-07-04T12:14:33.120Z,30.43
2018-07-04T12:16:26.012Z,30.48
2018-07-04T12:17:25.851Z,30.32
2018-07-04T12:19:18.681Z,30.18
2018-07-04T12:20:18.608Z,30.33
2018-07-04T12:22:11.490Z,30.35
2018-07-04T12:23:11.364Z,30.37
2018-07-04T12:25:04.360Z,30.73
2018-07-04T12:26:04.121Z,30.85
2018-07-04T12:27:56.960Z,30.95
2018-07-04T12:28:56.856Z,30.97
2018-07-04T12:30:49.716Z,31.17
2018-07-04T12:31:49.606Z,31.14
2018-07-04T12:33:42.471Z,30.70
2018-07-04T12:34:42.405Z,30.73
2018-07-04T12:36:35.201Z,30.52
2018-07-04T12:37:35.144Z,30.26
2018-07-04T12:39:27.954Z,30.55
2018-07-04T12:40:27.866Z,30.52
2018-07-04T12:42:20.702Z,30.52
2018-07-04T12:43:20.664Z,30.58
2018-07-04T12:45:13.441Z,30.83
2018-07-04T12:46:13.351Z,30.85
2018-07-04T12:48:06.208Z,31.02
2018-07-04T12:49:06.093Z,31.05
2018-07-04T12:51:00.076Z,30.96
2018-07-04T12:51:59.361Z,31.08
2018-07-04T12:53:53.212Z,31.64
2018-07-04T12:54:52.146Z,31.94
2018-07-04T12:56:45.318Z,32.11
2018-07-04T12:57:44.863Z,32.13
2018-07-04T12:59:37.697Z,32.04
2018-07-04T13:00:37.620Z,31.90
2018-07-04T13:02:30.465Z,31.78
2018-07-04T13:03:30.373Z,31.30
2018-07-04T13:05:23.298Z,30.88
2018-07-04T13:06:23.167Z,31.12
2018-07-04T13:08:16.077Z,31.32
2018-07-04T13:09:16.109Z,31.44
2018-07-04T13:11:08.835Z,31.78
2018-07-04T13:12:08.609Z,32.04
2018-07-04T13:14:02.105Z,32.02
2018-07-04T13:15:01.505Z,31.91
2018-07-04T13:16:54.307Z,31.32
2018-07-04T13:17:54.418Z,31.33
2018-07-04T13:19:47.044Z,31.48
2018-07-04T13:20:46.963Z,31.78
2018-07-04T13:22:39.799Z,32.21
2018-07-04T13:23:39.756Z,32.21
2018-07-04T13:25:32.563Z,32.41
2018-07-04T13:26:32.453Z,32.31
2018-07-04T13:28:25.308Z,32.20
2018-07-04T13:29:25.242Z,31.74
2018-07-04T13:31:18.075Z,31.60
2018-07-04T13:32:18.005Z,31.66
2018-07-04T13:34:10.832Z,31.71
2018-07-04T13:35:10.725Z,31.86
2018-07-04T13:37:03.554Z,32.11
2018-07-04T13:38:03.451Z,32.26
2018-07-04T13:39:56.307Z,32.09
2018-07-04T13:40:56.236Z,31.91
2018-07-04T13:42:49.063Z,31.79
2018-07-04T13:43:48.967Z,31.87
2018-07-04T13:45:44.189Z,32.41
2018-07-04T13:46:42.460Z,32.55
2018-07-04T13:48:35.178Z,31.87
2018-07-04T13:49:35.068Z,31.76
2018-07-04T13:51:28.427Z,32.09
2018-07-04T13:52:28.328Z,32.13
2018-07-04T13:54:21.193Z,32.17
2018-07-04T13:55:21.080Z,32.23
2018-07-04T13:57:13.949Z,32.21
2018-07-04T13:58:13.968Z,32.36
2018-07-04T14:00:07.228Z,31.89
2018-07-04T14:01:06.575Z,32.13
2018-07-04T14:02:59.404Z,32.32
2018-07-04T14:03:59.406Z,32.26
2018-07-04T14:05:52.694Z,31.60
2018-07-04T14:06:52.606Z,31.42
2018-07-04T14:08:45.445Z,31.56
2018-07-04T14:09:45.345Z,31.52
2018-07-04T14:11:38.201Z,31.71
2018-07-04T14:12:38.221Z,31.94
2018-07-04T14:14:31.452Z,32.14
2018-07-04T14:15:31.369Z,31.91
2018-07-04T14:17:24.230Z,31.57
2018-07-04T14:18:24.117Z,31.45
2018-07-04T14:20:16.935Z,31.59
2018-07-04T14:21:16.857Z,31.61
2018-07-04T14:23:10.208Z,31.71
2018-07-04T14:24:10.111Z,31.97
2018-07-04T14:26:02.964Z,32.41
2018-07-04T14:27:02.865Z,32.31
2018-07-04T14:28:57.725Z,31.99
2018-07-04T14:29:55.630Z,32.42
2018-07-04T14:31:49.284Z,32.75
2018-07-04T14:32:48.428Z,32.95
2018-07-04T14:34:41.254Z,32.57
2018-07-04T14:35:41.122Z,32.63
2018-07-04T14:37:33.963Z,32.31
2018-07-04T14:38:34.088Z,32.32
2018-07-04T14:40:26.726Z,32.26
2018-07-04T14:41:26.623Z,32.19
2018-07-04T14:43:19.485Z,32.01
2018-07-04T14:44:19.375Z,32.09
2018-07-04T14:46:12.223Z,31.75
2018-07-04T14:47:12.116Z,31.59
2018-07-04T14:49:04.970Z,31.52
2018-07-04T14:50:04.884Z,31.49
2018-07-04T14:51:57.741Z,31.57
2018-07-04T14:52:57.619Z,31.39
2018-07-04T14:54:50.454Z,31.29
2018-07-04T14:55:50.381Z,31.08
2018-07-04T14:57:43.195Z,30.90
2018-07-04T14:58:43.102Z,30.93
2018-07-04T15:00:35.960Z,31.01
2018-07-04T15:01:35.853Z,30.92
2018-07-04T15:03:29.316Z,30.95
2018-07-04T15:04:29.473Z,30.90
2018-07-04T15:06:22.044Z,30.67
2018-07-04T15:07:22.000Z,30.51
2018-07-04T15:09:14.823Z,30.88
2018-07-04T15:10:14.717Z,30.92
2018-07-04T15:12:08.144Z,31.34
2018-07-04T15:13:07.977Z,31.49
2018-07-04T15:15:00.833Z,31.48
2018-07-04T15:16:00.908Z,31.33
2018-07-04T15:17:54.189Z,31.19
2018-07-04T15:18:54.006Z,30.96
2018-07-04T15:20:46.855Z,30.88
2018-07-04T15:21:46.745Z,30.90
2018-07-04T15:23:39.572Z,30.86
2018-07-04T15:24:39.523Z,30.92
2018-07-04T15:26:32.880Z,30.97
2018-07-04T15:27:32.803Z,30.88
2018-07-04T15:29:25.608Z,30.86
2018-07-04T15:30:25.507Z,30.75
2018-07-04T15:32:18.346Z,30.71
2018-07-04T15:33:18.247Z,30.80
2018-07-04T15:35:11.614Z,30.80
2018-07-04T15:36:11.520Z,30.90
2018-07-04T15:38:04.387Z,30.93
2018-07-04T15:39:04.305Z,31.07
2018-07-04T15:40:57.129Z,31.22
2018-07-04T15:41:57.013Z,31.27
2018-07-04T15:43:49.903Z,31.10
2018-07-04T15:44:49.793Z,31.12
2018-07-04T15:46:42.611Z,31.14
2018-07-04T15:47:42.514Z,31.19
2018-07-04T15:49:35.333Z,31.23
2018-07-04T15:50:35.258Z,30.99
2018-07-04T15:52:28.097Z,30.89
2018-07-04T15:53:28.013Z,30.88
2018-07-04T15:55:20.919Z,30.89
2018-07-04T15:56:20.771Z,30.82
2018-07-04T15:58:13.599Z,30.80
2018-07-04T15:59:13.505Z,30.68
2018-07-04T16:01:06.339Z,30.62
2018-07-04T16:02:06.261Z,30.68
2018-07-04T16:03:59.264Z,30.71
2018-07-04T16:04:59.022Z,30.65
2018-07-04T16:06:51.876Z,30.88
2018-07-04T16:07:51.760Z,30.95
2018-07-04T16:09:44.607Z,31.15
2018-07-04T16:10:44.512Z,31.17
2018-07-04T16:12:37.352Z,31.29
2018-07-04T16:13:37.279Z,31.45
2018-07-04T16:15:30.116Z,31.74
2018-07-04T16:16:30.010Z,31.91
2018-07-04T16:18:22.849Z,32.02
2018-07-04T16:19:22.751Z,32.21
2018-07-04T16:21:15.604Z,32.99
2018-07-04T16:22:15.543Z,33.48
2018-07-04T16:24:08.396Z,33.73
2018-07-04T16:25:08.311Z,33.70
2018-07-04T16:27:01.114Z,33.52
2018-07-04T16:28:01.162Z,33.44
2018-07-04T16:29:53.906Z,33.12
2018-07-04T16:30:53.842Z,32.94
2018-07-04T16:32:46.590Z,33.35
2018-07-04T16:33:46.503Z,33.69
2018-07-04T16:35:39.380Z,33.97
2018-07-04T16:36:39.261Z,34.32
2018-07-04T16:38:32.128Z,34.20
2018-07-04T16:39:31.998Z,33.74
2018-07-04T16:41:24.854Z,33.37
2018-07-04T16:42:24.751Z,33.10
2018-07-04T16:44:18.539Z,33.29
2018-07-04T16:45:17.514Z,33.32
2018-07-04T16:47:10.408Z,33.03
2018-07-04T16:48:10.286Z,33.04
2018-07-04T16:50:03.096Z,33.12
2018-07-04T16:51:03.033Z,33.41
2018-07-04T16:52:55.829Z,33.42
2018-07-04T16:53:55.751Z,33.35
2018-07-04T16:55:48.601Z,33.27
2018-07-04T16:56:48.496Z,32.85
2018-07-04T16:58:41.357Z,33.09
2018-07-04T16:59:41.262Z,33.29
2018-07-04T17:01:34.088Z,33.73
2018-07-04T17:02:33.998Z,33.93
2018-07-04T17:04:26.855Z,33.86
2018-07-04T17:05:26.750Z,33.54
2018-07-04T17:07:19.590Z,32.94
2018-07-04T17:08:19.513Z,32.73
2018-07-04T17:10:12.341Z,32.26
2018-07-04T17:11:12.249Z,32.23
2018-07-04T17:13:05.165Z,32.38
2018-07-04T17:14:05.015Z,32.46
2018-07-04T17:15:57.850Z,32.32
2018-07-04T17:16:57.747Z,32.31
2018-07-04T17:18:50.591Z,32.55
2018-07-04T17:19:50.498Z,32.42
2018-07-04T17:21:43.343Z,32.38
2018-07-04T17:22:43.247Z,32.36
2018-07-04T17:24:36.088Z,32.14
2018-07-04T17:25:35.997Z,31.84
2018-07-04T17:27:28.834Z,31.74
2018-07-04T17:28:28.738Z,31.94
2018-07-04T17:30:21.639Z,31.91
2018-07-04T17:31:21.501Z,32.05
2018-07-04T17:33:14.922Z,32.41
2018-07-04T17:34:14.247Z,32.45
2018-07-04T17:36:07.125Z,32.24
2018-07-04T17:37:07.092Z,32.21
2018-07-04T17:38:59.856Z,32.11
2018-07-04T17:39:59.752Z,31.97
2018-07-04T17:41:52.598Z,31.95
2018-07-04T17:42:52.533Z,31.78
2018-07-04T17:44:45.361Z,31.48
2018-07-04T17:45:45.255Z,31.41
2018-07-04T17:47:38.222Z,31.38
2018-07-04T17:48:38.007Z,31.42
2018-07-04T17:50:30.834Z,31.68
2018-07-04T17:51:30.762Z,32.01
2018-07-04T17:53:23.646Z,31.76
2018-07-04T17:54:23.486Z,31.87
2018-07-04T17:56:16.908Z,31.81
2018-07-04T17:57:16.236Z,32.05
2018-07-04T17:59:09.093Z,32.14
2018-07-04T18:00:08.999Z,32.05
2018-07-04T18:02:01.827Z,31.90
2018-07-04T18:03:01.738Z,31.79
2018-07-04T18:04:54.592Z,32.01
2018-07-04T18:05:54.488Z,32.06
2018-07-04T18:07:47.334Z,32.13
2018-07-04T18:08:47.255Z,32.17
2018-07-04T18:10:40.602Z,32.43
2018-07-04T18:11:40.503Z,32.48
2018-07-04T18:13:33.334Z,32.38
2018-07-04T18:14:33.252Z,32.01
2018-07-04T18:16:26.127Z,31.54
2018-07-04T18:17:26.065Z,31.39
2018-07-04T18:19:18.908Z,30.70
2018-07-04T18:20:18.748Z,30.37
2018-07-04T18:22:11.594Z,30.30
2018-07-04T18:23:11.500Z,30.22
2018-07-04T18:25:04.343Z,30.08
2018-07-04T18:26:04.252Z,30.11
2018-07-04T18:27:57.094Z,30.07
2018-07-04T18:28:57.005Z,30.02
2018-07-04T18:30:49.912Z,29.96
2018-07-04T18:31:49.750Z,29.95